Time;durP1;ratioP1;P1;durP2;ratioP2;P2;SDS_P1;SDS_P2;PMS_P1;PMS_P2;Temp;Humidity;BMP_temperature;BMP_pressure;BME280_temperature;BME280_humidity;BME280_pressure;Samples;Min_cycle;Max_cycle;Signal;HPM_P1;HPM_P2
2022/06/18 00:02:15;;;;;;;0.98;0.30;;;21.40;99.90;;;;;;5044375;28;20033;-89
2022/06/18 00:04:43;;;;;;;1.17;0.35;;;21.40;99.90;;;;;;5021800;28;20089;-88
2022/06/18 00:07:15;;;;;;;1.25;0.40;;;21.30;99.90;;;;;;5034740;28;20037;-89
2022/06/18 00:09:43;;;;;;;1.48;0.30;;;21.20;99.90;;;;;;5042615;28;20048;-88
2022/06/18 00:15:10;;;;;;;1.33;0.40;;;21.20;99.90;;;;;;5035246;28;20038;-87
2022/06/18 00:17:36;;;;;;;0.90;0.40;;;21.10;99.90;;;;;;5043401;28;20380;-87
2022/06/18 00:20:03;;;;;;;2.35;0.40;;;21.10;99.90;;;;;;5024387;28;20028;-87
2022/06/18 00:22:29;;;;;;;1.23;0.40;;;21.10;99.90;;;;;;5033905;28;20051;-88
2022/06/18 00:24:55;;;;;;;1.58;0.35;;;21.10;99.90;;;;;;5038880;28;20473;-88
2022/06/18 00:27:21;;;;;;;1.67;0.30;;;21.00;99.90;;;;;;5038536;28;20083;-88
2022/06/18 00:29:49;;;;;;;1.10;0.40;;;20.90;99.90;;;;;;5032878;28;20037;-87
2022/06/18 00:32:15;;;;;;;1.23;0.40;;;20.90;99.90;;;;;;5039840;28;20151;-88
2022/06/18 00:34:41;;;;;;;1.40;0.40;;;20.80;99.90;;;;;;5023408;28;20030;-88
2022/06/18 00:37:09;;;;;;;2.08;0.38;;;20.80;99.90;;;;;;5018758;28;20061;-88
2022/06/18 00:39:35;;;;;;;0.85;0.30;;;20.80;99.90;;;;;;5035445;28;20037;-88
2022/06/18 00:42:07;;;;;;;1.33;0.40;;;20.70;99.90;;;;;;5032593;28;20029;-88
2022/06/18 00:44:38;;;;;;;1.65;0.50;;;20.70;99.90;;;;;;5024101;28;20106;-88
2022/06/18 00:47:19;;;;;;;1.05;0.40;;;20.70;99.90;;;;;;5048473;28;20025;-88
2022/06/18 00:49:57;;;;;;;0.90;0.40;;;20.60;99.90;;;;;;5040867;28;20121;-88
2022/06/18 00:52:27;;;;;;;1.40;0.40;;;20.60;99.90;;;;;;5020008;28;20501;-88
2022/06/18 00:55:05;;;;;;;1.40;0.40;;;20.50;99.90;;;;;;5023706;28;20048;-88
2022/06/18 00:57:51;;;;;;;1.55;0.40;;;20.50;99.90;;;;;;5022054;28;20048;-88
2022/06/18 01:00:25;;;;;;;1.00;0.50;;;20.40;99.90;;;;;;5032976;28;20527;-88
2022/06/18 01:02:52;;;;;;;1.40;0.45;;;20.30;99.90;;;;;;5023346;28;20039;-87
2022/06/18 01:05:20;;;;;;;1.10;0.50;;;20.30;99.90;;;;;;5038807;28;20036;-88
2022/06/18 01:07:51;;;;;;;1.98;0.50;;;20.20;99.90;;;;;;5041536;28;20363;-88
2022/06/18 01:10:26;;;;;;;1.35;0.45;;;20.00;99.90;;;;;;5034616;28;20047;-88
2022/06/18 01:12:52;;;;;;;1.60;0.50;;;20.00;99.90;;;;;;5033811;28;20029;-88
2022/06/18 01:15:20;;;;;;;0.90;0.40;;;19.90;99.90;;;;;;5042055;28;20469;-88
2022/06/18 01:17:49;;;;;;;1.73;0.50;;;19.80;99.90;;;;;;5024227;28;20033;-87
2022/06/18 01:20:17;;;;;;;1.13;0.40;;;19.80;99.90;;;;;;5021283;28;20022;-86
2022/06/18 01:22:55;;;;;;;1.75;0.57;;;19.80;99.90;;;;;;5034895;28;20071;-87
2022/06/18 01:25:23;;;;;;;1.00;0.40;;;19.70;99.90;;;;;;5018899;28;20685;-88
2022/06/18 01:27:55;;;;;;;1.10;0.45;;;19.70;99.90;;;;;;5034214;28;20057;-88
2022/06/18 01:30:32;;;;;;;1.35;0.40;;;19.70;99.90;;;;;;5028108;28;20025;-89
2022/06/18 01:32:59;;;;;;;1.75;0.60;;;19.80;99.90;;;;;;5019981;28;20072;-88
2022/06/18 01:35:28;;;;;;;1.70;0.40;;;19.80;99.90;;;;;;5023791;28;20048;-88
2022/06/18 01:37:58;;;;;;;1.25;0.40;;;19.80;99.90;;;;;;5035040;28;20432;-87
2022/06/18 01:40:38;;;;;;;1.50;0.50;;;19.80;99.90;;;;;;5026139;28;20033;-87
2022/06/18 01:43:07;;;;;;;1.73;0.47;;;19.70;99.90;;;;;;5036651;28;20048;-88
2022/06/18 01:45:36;;;;;;;1.10;0.50;;;19.70;99.90;;;;;;5034037;28;20132;-88
2022/06/18 01:48:19;;;;;;;1.38;0.50;;;19.70;99.90;;;;;;5021325;28;20029;-88
2022/06/18 01:51:05;;;;;;;2.05;0.40;;;19.70;99.90;;;;;;5049138;28;20022;-88
2022/06/18 01:53:37;;;;;;;0.95;0.40;;;19.70;99.90;;;;;;5036199;28;20029;-87
2022/06/18 01:56:09;;;;;;;1.85;0.40;;;19.70;99.90;;;;;;5041376;28;20098;-88
2022/06/18 01:59:15;;;;;;;1.80;0.45;;;19.70;99.90;;;;;;5018319;28;20048;-88
2022/06/18 02:01:44;;;;;;;1.10;0.40;;;19.60;99.90;;;;;;5024839;28;20061;-88
2022/06/18 02:04:10;;;;;;;2.75;0.43;;;19.60;99.90;;;;;;5039103;28;20115;-87
2022/06/18 02:06:37;;;;;;;0.95;0.40;;;19.70;99.90;;;;;;5038390;28;20029;-87
2022/06/18 02:09:09;;;;;;;1.52;0.52;;;19.60;99.90;;;;;;5023646;28;20083;-87
2022/06/18 02:11:35;;;;;;;1.10;0.60;;;19.60;99.90;;;;;;5031095;28;20055;-88
2022/06/18 02:14:05;;;;;;;1.80;0.50;;;19.60;99.90;;;;;;5023400;28;20122;-87
2022/06/18 02:16:37;;;;;;;1.63;0.70;;;19.60;99.90;;;;;;5024479;28;20037;-87
2022/06/18 02:19:05;;;;;;;2.17;0.43;;;19.60;99.90;;;;;;5033382;28;20041;-88
2022/06/18 02:21:36;;;;;;;1.23;0.50;;;19.60;99.90;;;;;;5017017;28;20457;-88
2022/06/18 02:24:02;;;;;;;1.85;0.50;;;19.60;99.90;;;;;;5023404;28;20037;-87
2022/06/18 02:26:29;;;;;;;2.05;0.50;;;19.60;99.90;;;;;;5035990;28;20492;-88
2022/06/18 02:28:55;;;;;;;1.70;0.50;;;19.60;99.90;;;;;;5041590;28;20128;-88
2022/06/18 02:31:26;;;;;;;1.08;0.55;;;19.50;99.90;;;;;;5018949;28;20025;-88
2022/06/18 02:33:56;;;;;;;3.28;0.55;;;19.50;99.90;;;;;;5033114;28;20087;-88
2022/06/18 02:36:28;;;;;;;1.55;0.50;;;19.50;99.90;;;;;;5039444;28;20041;-86
2022/06/18 02:39:36;;;;;;;1.15;0.50;;;19.50;99.90;;;;;;5037801;28;20033;-87
2022/06/18 02:42:09;;;;;;;2.05;0.60;;;19.40;99.90;;;;;;5022586;28;20389;-88
2022/06/18 02:44:38;;;;;;;1.73;0.50;;;19.40;99.90;;;;;;5031346;28;20032;-88
2022/06/18 02:47:06;;;;;;;2.13;0.50;;;19.30;99.90;;;;;;5018165;28;20112;-89
2022/06/18 02:49:36;;;;;;;2.08;0.73;;;19.30;99.90;;;;;;5049264;28;20029;-88
2022/06/18 02:52:07;;;;;;;1.88;0.65;;;19.30;99.90;;;;;;5017585;28;20075;-87
2022/06/18 02:54:33;;;;;;;1.90;0.60;;;19.30;99.90;;;;;;5031372;28;20120;-87
2022/06/18 02:57:03;;;;;;;1.33;0.57;;;19.20;99.90;;;;;;5031557;28;20035;-88
2022/06/18 02:59:30;;;;;;;2.92;0.70;;;19.20;99.90;;;;;;5015320;28;21850;-88
2022/06/18 03:01:56;;;;;;;1.80;0.70;;;19.30;99.90;;;;;;5038644;28;20126;-88
2022/06/18 03:04:23;;;;;;;2.35;0.57;;;19.30;99.90;;;;;;5036150;28;20496;-88
2022/06/18 03:06:49;;;;;;;1.48;0.60;;;19.30;99.90;;;;;;5030897;28;20158;-88
2022/06/18 03:09:14;;;;;;;1.40;0.60;;;19.30;99.90;;;;;;5023532;28;20547;-86
2022/06/18 03:14:24;;;;;;;2.55;0.60;;;19.30;99.90;;;;;;5033556;28;20029;-88
2022/06/18 03:16:50;;;;;;;1.25;0.68;;;19.30;99.90;;;;;;5037962;28;20026;-88
2022/06/18 03:19:40;;;;;;;2.20;0.57;;;19.30;99.90;;;;;;5031711;28;20585;-88
2022/06/18 03:22:13;;;;;;;1.77;0.70;;;19.30;99.90;;;;;;5038140;28;20424;-88
2022/06/18 03:24:41;;;;;;;1.30;0.63;;;19.40;99.90;;;;;;5022082;28;20060;-88
2022/06/18 03:27:12;;;;;;;1.75;0.60;;;19.40;99.90;;;;;;5017872;28;20040;-88
2022/06/18 03:29:42;;;;;;;1.60;0.50;;;19.30;99.90;;;;;;5033790;28;20033;-87
2022/06/18 03:32:08;;;;;;;1.90;0.60;;;19.30;99.90;;;;;;5014423;28;20036;-87
2022/06/18 03:34:34;;;;;;;3.10;0.80;;;19.40;99.90;;;;;;5038207;28;20199;-88
2022/06/18 03:37:00;;;;;;;2.10;0.65;;;19.30;99.90;;;;;;5038189;28;20596;-88
2022/06/18 03:39:26;;;;;;;1.63;0.65;;;19.30;99.90;;;;;;5032719;28;20051;-88
2022/06/18 03:41:52;;;;;;;1.85;0.88;;;19.40;99.90;;;;;;5031574;28;20033;-87
2022/06/18 03:44:18;;;;;;;3.42;0.90;;;19.50;99.90;;;;;;5033679;28;20029;-88
2022/06/18 03:46:45;;;;;;;3.00;0.90;;;19.40;99.90;;;;;;5032537;28;20021;-87
2022/06/18 03:49:19;;;;;;;3.28;0.90;;;19.50;99.90;;;;;;5031564;28;20037;-87
2022/06/18 03:51:45;;;;;;;1.88;0.75;;;19.60;99.90;;;;;;5031808;28;20025;-88
2022/06/18 03:54:11;;;;;;;2.75;0.60;;;19.70;99.90;;;;;;5032434;28;20512;-88
2022/06/18 03:56:36;;;;;;;2.70;0.80;;;19.60;99.90;;;;;;5030054;28;20653;-87
2022/06/18 03:59:03;;;;;;;2.55;0.80;;;19.80;99.90;;;;;;5022021;28;20453;-87
2022/06/18 04:01:33;;;;;;;1.60;0.70;;;19.70;99.90;;;;;;5035734;28;20533;-88
2022/06/18 04:04:02;;;;;;;1.77;0.80;;;19.70;99.90;;;;;;5033584;28;20080;-88
2022/06/18 04:06:33;;;;;;;3.50;0.85;;;19.70;99.90;;;;;;5018026;28;20033;-88
2022/06/18 04:09:06;;;;;;;2.72;0.60;;;19.70;99.90;;;;;;5020025;28;20132;-88
2022/06/18 04:11:33;;;;;;;2.72;0.80;;;19.70;99.90;;;;;;5032313;28;20513;-89
2022/06/18 04:14:00;;;;;;;1.77;0.70;;;19.70;99.90;;;;;;5030050;28;20509;-88
2022/06/18 04:16:56;;;;;;;2.10;0.70;;;19.70;99.90;;;;;;5037112;28;20327;-88
2022/06/18 04:19:23;;;;;;;2.40;0.80;;;19.80;99.90;;;;;;5029878;28;20428;-88
2022/06/18 04:21:50;;;;;;;3.50;0.70;;;19.80;99.90;;;;;;5034112;28;20030;-88
2022/06/18 04:24:16;;;;;;;2.10;0.70;;;19.90;99.90;;;;;;5022911;28;20631;-85
2022/06/18 04:26:46;;;;;;;2.10;0.93;;;20.00;99.90;;;;;;5041991;28;20061;-89
2022/06/18 04:29:13;;;;;;;2.67;1.30;;;20.00;99.90;;;;;;5034299;28;20025;-89
2022/06/18 04:31:39;;;;;;;2.50;0.80;;;20.10;99.90;;;;;;5023602;28;20037;-88
2022/06/18 04:34:05;;;;;;;1.65;0.77;;;20.10;99.90;;;;;;5033408;28;20040;-89
2022/06/18 04:36:39;;;;;;;2.10;1.00;;;20.20;99.90;;;;;;5037192;28;20049;-86
2022/06/18 04:39:12;;;;;;;3.00;0.82;;;20.30;99.90;;;;;;5029235;28;20516;-87
2022/06/18 04:41:54;;;;;;;3.75;0.85;;;20.30;99.90;;;;;;5021821;28;20028;-88
2022/06/18 04:44:22;;;;;;;3.75;1.10;;;20.40;99.90;;;;;;5034188;28;20048;-89
2022/06/18 04:47:11;;;;;;;2.83;1.00;;;20.40;99.90;;;;;;5037651;28;20134;-89
2022/06/18 04:49:37;;;;;;;2.45;0.95;;;20.50;99.90;;;;;;5035055;28;20033;-88
2022/06/18 04:52:03;;;;;;;2.45;1.17;;;20.60;99.90;;;;;;5032815;28;20041;-87
2022/06/18 04:54:38;;;;;;;3.47;1.02;;;20.60;99.90;;;;;;5032648;28;20183;-89
2022/06/18 04:57:04;;;;;;;5.68;1.38;;;20.70;99.90;;;;;;5038046;28;20026;-89
2022/06/18 04:59:31;;;;;;;4.93;1.73;;;20.70;99.90;;;;;;5035304;28;20452;-85
2022/06/18 05:02:21;;;;;;;5.13;2.60;;;20.80;99.90;;;;;;5034647;28;20021;-88
2022/06/18 05:05:20;;;;;;;5.85;1.88;;;20.90;99.90;;;;;;5036873;28;20077;-86
2022/06/18 05:08:15;;;;;;;3.95;1.25;;;21.00;99.90;;;;;;5025989;28;20037;-89
2022/06/18 05:10:51;;;;;;;3.70;2.35;;;21.10;99.90;;;;;;5039939;28;20040;-87
2022/06/18 05:13:25;;;;;;;3.70;1.83;;;21.10;99.90;;;;;;5032191;28;20037;-87
2022/06/18 05:16:19;;;;;;;3.45;1.52;;;21.20;99.90;;;;;;5036034;28;20044;-87
2022/06/18 05:18:46;;;;;;;6.57;2.47;;;21.30;99.90;;;;;;5017965;28;20045;-88
2022/06/18 05:21:13;;;;;;;3.90;1.70;;;21.30;99.90;;;;;;5040371;28;20097;-88
2022/06/18 05:23:38;;;;;;;5.18;2.65;;;21.40;99.90;;;;;;5031900;28;20025;-88
2022/06/18 05:26:11;;;;;;;5.90;2.00;;;21.50;99.90;;;;;;5034177;28;20040;-86
2022/06/18 05:28:37;;;;;;;3.97;1.67;;;21.60;99.90;;;;;;5039987;28;20115;-88
2022/06/18 05:31:03;;;;;;;5.18;1.55;;;21.60;99.90;;;;;;5042622;28;20120;-88
2022/06/18 05:33:31;;;;;;;3.35;2.42;;;21.70;99.90;;;;;;5026288;28;20029;-88
2022/06/18 05:35:57;;;;;;;6.20;2.72;;;21.70;99.90;;;;;;5040744;28;20054;-87
2022/06/18 05:38:24;;;;;;;7.20;3.13;;;21.80;99.90;;;;;;5023275;28;20039;-88
2022/06/18 05:40:49;;;;;;;4.13;1.75;;;21.80;99.90;;;;;;5041792;28;20021;-87
2022/06/18 05:43:15;;;;;;;6.10;2.67;;;21.90;99.90;;;;;;5038665;28;20029;-87
2022/06/18 05:45:42;;;;;;;4.82;2.90;;;22.00;99.90;;;;;;5018438;28;20116;-85
2022/06/18 05:48:09;;;;;;;7.35;3.60;;;22.00;99.90;;;;;;5025911;28;20029;-88
2022/06/18 05:50:36;;;;;;;3.72;2.13;;;22.10;99.90;;;;;;5036899;28;20087;-88
2022/06/18 05:53:01;;;;;;;3.03;1.60;;;22.40;99.90;;;;;;5033752;28;20372;-87
2022/06/18 05:55:46;;;;;;;3.25;1.40;;;22.50;99.90;;;;;;5035944;28;20114;-87
2022/06/18 05:58:30;;;;;;;5.05;2.58;;;22.70;99.90;;;;;;5046027;28;20183;-87
2022/06/18 06:01:10;;;;;;;6.93;2.85;;;22.60;99.90;;;;;;5021192;28;20124;-87
2022/06/18 06:03:36;;;;;;;8.77;4.20;;;22.40;99.90;;;;;;5022823;28;20115;-88
2022/06/18 06:06:02;;;;;;;4.50;2.25;;;22.40;99.90;;;;;;5032283;28;20025;-88
2022/06/18 06:08:28;;;;;;;6.63;3.35;;;22.60;99.90;;;;;;5015963;28;20064;-84
2022/06/18 06:13:38;;;;;;;7.70;2.83;;;22.80;99.90;;;;;;5039944;28;20025;-87
2022/06/18 06:16:05;;;;;;;5.63;2.47;;;22.90;99.90;;;;;;5022702;28;20529;-87
2022/06/18 06:18:31;;;;;;;6.30;2.45;;;22.90;99.90;;;;;;5023157;28;20037;-88
2022/06/18 06:21:00;;;;;;;4.13;2.17;;;22.90;99.90;;;;;;5032447;28;20029;-87
2022/06/18 06:23:25;;;;;;;4.60;2.08;;;23.10;99.90;;;;;;5033225;28;20098;-87
2022/06/18 06:25:51;;;;;;;4.90;2.50;;;23.10;99.90;;;;;;5032498;28;20033;-88
2022/06/18 06:28:20;;;;;;;7.70;3.30;;;23.00;99.90;;;;;;5040596;28;20033;-87
2022/06/18 06:30:46;;;;;;;4.68;3.28;;;22.90;99.90;;;;;;5034285;28;20116;-88
2022/06/18 06:33:12;;;;;;;8.60;3.58;;;22.90;99.90;;;;;;5032014;28;20033;-88
2022/06/18 06:35:38;;;;;;;5.63;3.20;;;23.00;99.90;;;;;;5017969;28;20103;-87
2022/06/18 06:38:04;;;;;;;6.03;3.15;;;23.00;99.90;;;;;;5021106;28;20037;-87
2022/06/18 06:40:32;;;;;;;6.65;2.92;;;23.00;99.90;;;;;;5041094;28;20061;-88
2022/06/18 06:42:58;;;;;;;6.00;2.95;;;23.00;99.90;;;;;;5035295;28;20033;-89
2022/06/18 06:45:29;;;;;;;3.17;2.05;;;23.10;99.90;;;;;;5034669;28;20055;-87
2022/06/18 06:47:56;;;;;;;5.97;1.90;;;23.50;99.90;;;;;;5034146;28;20103;-87
2022/06/18 06:50:24;;;;;;;3.28;1.23;;;24.00;99.90;;;;;;5036863;28;20037;-87
2022/06/18 06:52:50;;;;;;;4.78;1.77;;;24.40;99.90;;;;;;5033074;28;20068;-87
2022/06/18 06:58:14;;;;;;;5.03;1.67;;;24.90;99.90;;;;;;5038170;28;20037;-86
2022/06/18 07:00:42;;;;;;;4.65;1.52;;;24.80;99.90;;;;;;5031298;28;20170;-88
2022/06/18 07:03:13;;;;;;;4.50;1.95;;;25.30;99.90;;;;;;5021351;28;20034;-87
2022/06/18 07:05:40;;;;;;;7.82;3.03;;;24.90;99.90;;;;;;5031405;28;20029;-88
2022/06/18 07:08:06;;;;;;;3.20;1.77;;;24.30;99.90;;;;;;5022717;28;20131;-87
2022/06/18 07:10:32;;;;;;;4.43;2.50;;;24.70;99.90;;;;;;5030444;28;20052;-88
2022/06/18 07:12:57;;;;;;;4.35;1.90;;;24.90;99.90;;;;;;5033473;28;20083;-86
2022/06/18 07:15:23;;;;;;;5.43;2.67;;;25.20;99.90;;;;;;5045507;28;20078;-87
2022/06/18 07:17:49;;;;;;;4.90;2.25;;;24.60;99.90;;;;;;5037087;28;20135;-87
2022/06/18 07:20:19;;;;;;;4.72;2.08;;;24.90;99.90;;;;;;5037530;28;20504;-88
2022/06/18 07:22:46;;;;;;;3.97;1.63;;;25.50;99.90;;;;;;5014843;28;20029;-87
2022/06/18 07:25:14;;;;;;;13.20;4.93;;;25.70;99.90;;;;;;5034393;28;20060;-88
2022/06/18 07:27:40;;;;;;;4.60;2.30;;;24.80;99.90;;;;;;5018649;28;20398;-88
2022/06/18 07:30:08;;;;;;;8.25;3.80;;;25.20;99.90;;;;;;5034710;28;20094;-89
2022/06/18 07:32:43;;;;;;;8.60;3.17;;;24.50;99.90;;;;;;5031840;28;20037;-88
2022/06/18 07:35:16;;;;;;;5.45;3.58;;;24.70;99.90;;;;;;5035997;28;20098;-88
2022/06/18 07:37:42;;;;;;;6.53;2.25;;;24.60;99.90;;;;;;5021091;28;20397;-88
2022/06/18 07:40:08;;;;;;;5.03;3.28;;;24.90;99.90;;;;;;5034616;28;20037;-86
2022/06/18 07:42:35;;;;;;;7.30;4.35;;;24.90;99.90;;;;;;5050454;28;20138;-88
2022/06/18 07:45:01;;;;;;;10.23;4.65;;;24.70;99.90;;;;;;5047940;28;20037;-85
2022/06/18 07:47:26;;;;;;;9.05;3.72;;;24.90;99.90;;;;;;5033482;28;20039;-87
2022/06/18 07:49:52;;;;;;;7.80;3.92;;;25.10;99.90;;;;;;5033693;28;20033;-87
2022/06/18 07:52:18;;;;;;;9.20;4.05;;;25.10;99.90;;;;;;5038834;28;20031;-86
2022/06/18 07:54:44;;;;;;;5.70;3.67;;;25.00;99.90;;;;;;5048059;28;20111;-85
2022/06/18 07:57:10;;;;;;;5.50;3.63;;;25.00;99.90;;;;;;5031481;28;20060;-88
2022/06/18 07:59:38;;;;;;;7.80;4.68;;;25.40;99.90;;;;;;5031489;28;20052;-88
2022/06/18 08:02:06;;;;;;;9.50;4.28;;;25.20;99.90;;;;;;5047613;28;20095;-88
2022/06/18 08:04:31;;;;;;;9.73;4.50;;;25.30;99.90;;;;;;5022565;28;20545;-87
2022/06/18 08:06:57;;;;;;;10.95;3.80;;;25.10;99.90;;;;;;5019109;28;20033;-87
2022/06/18 08:09:23;;;;;;;9.10;4.13;;;25.10;99.90;;;;;;5047259;28;20369;-88
2022/06/18 08:11:50;;;;;;;5.15;3.83;;;25.30;99.90;;;;;;5022107;28;20021;-87
2022/06/18 08:14:16;;;;;;;7.22;5.10;;;25.50;99.90;;;;;;5020899;28;20490;-84
2022/06/18 08:16:44;;;;;;;8.60;3.60;;;25.40;99.90;;;;;;5022226;28;20056;-87
2022/06/18 08:19:10;;;;;;;6.65;4.38;;;25.70;99.90;;;;;;5038669;28;20045;-86
2022/06/18 08:21:41;;;;;;;7.53;4.25;;;25.80;99.90;;;;;;5008823;28;20040;-87
2022/06/18 08:24:10;;;;;;;6.60;3.38;;;25.90;99.90;;;;;;5025944;28;20366;-86
2022/06/18 08:26:38;;;;;;;8.88;4.22;;;26.10;99.90;;;;;;5019270;28;20044;-90
2022/06/18 08:29:06;;;;;;;8.20;3.30;;;25.90;99.90;;;;;;5033116;28;20033;-85
2022/06/18 08:31:31;;;;;;;8.45;3.38;;;26.30;99.90;;;;;;5034524;28;20028;-89
2022/06/18 08:33:57;;;;;;;7.55;3.95;;;26.60;99.90;;;;;;5039291;28;20040;-89
2022/06/18 08:36:24;;;;;;;7.35;2.85;;;26.40;99.90;;;;;;5026135;28;20038;-88
2022/06/18 08:38:50;;;;;;;7.60;2.97;;;26.50;99.90;;;;;;5036251;28;20052;-90
2022/06/18 08:41:22;;;;;;;5.63;3.13;;;26.60;99.90;;;;;;5035332;28;20108;-87
2022/06/18 08:44:13;;;;;;;8.70;2.60;;;26.50;99.90;;;;;;5037298;28;20052;-89
2022/06/18 08:46:47;;;;;;;8.38;2.80;;;26.70;99.90;;;;;;5033478;28;20563;-88
2022/06/18 08:49:27;;;;;;;8.30;3.15;;;26.70;99.90;;;;;;5053204;28;20059;-88
2022/06/18 08:51:57;;;;;;;9.32;2.35;;;26.70;99.90;;;;;;5033498;28;20029;-89
2022/06/18 08:54:45;;;;;;;7.40;2.78;;;26.70;99.90;;;;;;5041008;28;20033;-87
2022/06/18 08:57:49;;;;;;;8.48;2.80;;;26.70;99.90;;;;;;5040533;28;20032;-88
2022/06/18 09:00:42;;;;;;;3.92;1.42;;;26.50;99.90;;;;;;5042461;28;20100;-88
2022/06/18 09:03:29;;;;;;;9.63;3.50;;;28.10;99.90;;;;;;5022961;28;20730;-86
2022/06/18 09:06:14;;;;;;;12.35;3.20;;;27.30;99.90;;;;;;5014483;28;20029;-91
2022/06/18 09:09:21;;;;;;;10.23;2.95;;;27.00;99.90;;;;;;5046961;28;20234;-92
2022/06/18 09:12:08;;;;;;;8.60;3.13;;;27.00;99.90;;;;;;5020310;28;20197;-88
2022/06/18 09:14:52;;;;;;;5.28;1.65;;;27.10;99.90;;;;;;5049639;28;20045;-89
2022/06/18 09:17:45;;;;;;;9.52;2.53;;;27.20;99.90;;;;;;5020864;28;20063;-91
2022/06/18 09:20:31;;;;;;;5.22;1.60;;;27.10;99.90;;;;;;5039792;28;20045;-91
2022/06/18 09:23:04;;;;;;;5.20;2.42;;;27.00;99.90;;;;;;5034255;28;20066;-91
2022/06/18 09:25:37;;;;;;;7.03;1.88;;;27.20;99.90;;;;;;5038693;28;20385;-89
2022/06/18 09:28:06;;;;;;;9.27;2.80;;;27.20;99.90;;;;;;5048364;28;20374;-89
2022/06/18 09:30:37;;;;;;;6.17;1.57;;;27.20;99.90;;;;;;5031706;28;20066;-92
2022/06/18 09:33:10;;;;;;;6.75;3.08;;;27.40;99.90;;;;;;5033264;28;20276;-91
2022/06/18 09:35:42;;;;;;;4.72;1.58;;;27.40;99.90;;;;;;5032278;28;20059;-90
2022/06/18 09:38:47;;;;;;;4.65;2.90;;;27.50;99.90;;;;;;5033918;28;20091;-91
2022/06/18 09:41:30;;;;;;;4.45;1.65;;;27.30;99.90;;;;;;5032516;28;20287;-91
2022/06/18 09:44:11;;;;;;;6.72;1.90;;;27.70;99.90;;;;;;5016736;28;20037;-90
2022/06/18 09:46:59;;;;;;;5.95;1.20;;;27.70;99.90;;;;;;5033771;28;20032;-91
2022/06/18 09:49:24;;;;;;;6.50;2.22;;;28.60;99.90;;;;;;5022800;28;20044;-90
2022/06/18 09:52:05;;;;;;;6.22;2.15;;;28.10;99.90;;;;;;5031283;28;20029;-91
2022/06/18 09:54:48;;;;;;;6.80;2.03;;;27.80;99.90;;;;;;5034182;28;20021;-91
2022/06/18 09:57:18;;;;;;;3.05;1.08;;;28.20;99.90;;;;;;5037585;28;20044;-90
2022/06/18 10:00:08;;;;;;;3.20;1.30;;;29.60;99.90;;;;;;5022567;28;20041;-91
2022/06/18 10:02:55;;;;;;;5.15;0.95;;;29.20;99.90;;;;;;5040695;28;20067;-90
2022/06/18 10:08:17;;;;;;;5.82;0.98;;;29.70;99.90;;;;;;5045274;28;20039;-87
2022/06/18 10:10:51;;;;;;;5.55;1.08;;;29.60;99.90;;;;;;5047351;28;20389;-92
2022/06/18 10:13:28;;;;;;;2.95;0.68;;;30.10;99.90;;;;;;5048801;28;20018;-91
2022/06/18 10:16:51;;;;;;;4.65;1.35;;;30.20;99.90;;;;;;5032048;28;20062;-91
2022/06/18 10:19:29;;;;;;;6.90;1.10;;;28.70;99.90;;;;;;4991634;28;20064;-92
2022/06/18 10:22:42;;;;;;;6.20;1.30;;;28.80;99.90;;;;;;5014308;28;20032;-93
2022/06/18 10:26:06;;;;;;;;;;;;;;;;;;;;;
2022/06/18 10:29:30;;;;;;;3.17;0.60;;;29.80;99.90;;;;;;4970286;28;20105;-92
2022/06/18 10:36:34;;;;;;;7.40;1.00;;;29.10;99.90;;;;;;4926958;29;20055;-92
2022/06/18 10:39:56;;;;;;;6.00;0.70;;;29.20;99.90;;;;;;4919928;29;20117;-92
2022/06/18 10:43:28;;;;;;;3.47;1.08;;;29.30;99.90;;;;;;4924046;29;20032;-95
2022/06/18 10:46:18;;;;;;;6.55;1.50;;;29.20;99.90;;;;;;4928213;29;20181;-91
2022/06/18 10:48:49;;;;;;;5.90;1.30;;;29.50;99.90;;;;;;4915977;29;20473;-93
2022/06/18 10:51:20;;;;;;;6.97;1.83;;;29.30;99.90;;;;;;4897091;29;20075;-92
2022/06/18 10:53:52;;;;;;;4.20;0.90;;;29.50;99.90;;;;;;4892902;29;20048;-89
2022/06/18 10:56:21;;;;;;;3.97;0.60;;;30.50;99.90;;;;;;4893609;29;20039;-92
2022/06/18 10:59:00;;;;;;;;;;;30.40;99.90;;;;;;4908823;29;20113;-91
2022/06/18 11:01:39;;;;;;;5.75;1.20;;;30.50;99.90;;;;;;4936411;29;19910;-89
2022/06/18 11:04:25;;;;;;;4.18;0.80;;;30.10;99.90;;;;;;4917200;28;20182;-90
2022/06/18 11:06:57;;;;;;;4.55;1.23;;;30.90;99.90;;;;;;4935927;29;20035;-89
2022/06/18 11:09:30;;;;;;;5.25;1.20;;;30.60;99.90;;;;;;4992876;28;20184;-90
2022/06/18 11:12:05;;;;;;;4.38;0.95;;;29.90;99.90;;;;;;5037091;28;20033;-91
2022/06/18 11:14:42;;;;;;;5.03;1.13;;;29.90;99.90;;;;;;5052663;28;20530;-91
2022/06/18 11:17:29;;;;;;;6.18;1.00;;;30.00;99.90;;;;;;5037427;28;20060;-90
2022/06/18 11:20:07;;;;;;;7.10;1.45;;;29.80;99.90;;;;;;5041150;28;20061;-91
2022/06/18 11:22:33;;;;;;;5.70;1.60;;;29.70;99.90;;;;;;5039855;28;20524;-89
2022/06/18 11:25:19;;;;;;;3.60;0.88;;;29.30;99.90;;;;;;5040251;28;20055;-91
2022/06/18 11:27:47;;;;;;;5.40;1.00;;;30.30;99.90;;;;;;5050336;28;20041;-90
2022/06/18 11:30:40;;;;;;;5.63;0.70;;;31.50;99.90;;;;;;5034575;28;20098;-91
2022/06/18 11:33:25;;;;;;;7.60;0.98;;;31.30;99.90;;;;;;5017035;28;20052;-89
2022/06/18 11:35:51;;;;;;;6.95;0.70;;;30.60;99.90;;;;;;5035646;28;20068;-90
2022/06/18 11:38:30;;;;;;;6.90;0.80;;;30.90;99.90;;;;;;5019429;28;20038;-88
2022/06/18 11:40:57;;;;;;;;;;;30.90;99.90;;;;;;5030556;28;20134;-90
2022/06/18 11:43:34;;;;;;;3.90;0.70;;;30.90;99.90;;;;;;5020657;28;19913;-88
2022/06/18 11:46:06;;;;;;;5.15;0.70;;;31.90;99.90;;;;;;5021238;28;20131;-87
2022/06/18 11:48:58;;;;;;;3.42;0.88;;;31.90;99.90;;;;;;5019863;28;20095;-89
2022/06/18 11:51:36;;;;;;;6.78;0.95;;;31.30;99.90;;;;;;5035820;28;20037;-89
2022/06/18 11:54:07;;;;;;;8.17;1.23;;;31.30;99.90;;;;;;5017746;28;20037;-91
2022/06/18 11:56:39;;;;;;;5.70;0.90;;;30.10;99.90;;;;;;5017690;28;20047;-90
2022/06/18 11:59:28;;;;;;;4.57;0.60;;;31.00;99.90;;;;;;5036362;28;20044;-90
2022/06/18 12:01:59;;;;;;;6.10;0.75;;;31.80;99.90;;;;;;5029931;28;20111;-87
2022/06/18 12:04:47;;;;;;;11.05;1.25;;;30.90;99.90;;;;;;5031939;28;20060;-92
2022/06/18 12:07:39;;;;;;;4.00;0.80;;;31.10;99.90;;;;;;5050662;28;20044;-92
2022/06/18 12:10:14;;;;;;;8.15;0.95;;;30.80;99.90;;;;;;5028031;28;20036;-91
2022/06/18 12:12:52;;;;;;;6.75;1.00;;;30.40;99.90;;;;;;5035333;28;20123;-91
2022/06/18 12:15:28;;;;;;;5.63;0.80;;;30.00;99.90;;;;;;5036005;28;20018;-85
2022/06/18 12:18:15;;;;;;;6.20;1.02;;;30.10;99.90;;;;;;5038864;28;20037;-92
2022/06/18 12:21:07;;;;;;;5.38;0.90;;;30.40;99.90;;;;;;5035748;28;20112;-90
2022/06/18 12:23:53;;;;;;;5.72;0.88;;;30.50;99.90;;;;;;5013728;28;20041;-93
2022/06/18 12:26:32;;;;;;;5.20;0.90;;;30.60;99.90;;;;;;5057323;28;20041;-93
2022/06/18 12:29:12;;;;;;;;;;;30.30;99.90;;;;;;5051824;28;20124;-94
2022/06/18 12:31:50;;;;;;;6.60;1.00;;;30.50;99.90;;;;;;5028102;28;19955;-91
2022/06/18 12:34:30;;;;;;;5.80;0.70;;;30.40;99.90;;;;;;5036446;28;20474;-92
2022/06/18 12:37:31;;;;;;;3.55;0.65;;;30.60;99.90;;;;;;5051145;28;20158;-92
2022/06/18 12:40:06;;;;;;;4.05;0.80;;;30.60;99.90;;;;;;5040040;28;20899;-87
2022/06/18 12:42:50;;;;;;;6.22;1.20;;;30.60;99.90;;;;;;5034983;28;20040;-92
2022/06/18 12:45:33;;;;;;;5.13;1.20;;;30.30;99.90;;;;;;5035906;28;20098;-91
2022/06/18 12:48:05;;;;;;;7.30;1.30;;;30.30;99.90;;;;;;5019937;28;20555;-94
2022/06/18 12:50:44;;;;;;;7.80;1.60;;;30.20;99.90;;;;;;5020302;28;20111;-88
2022/06/18 12:53:12;;;;;;;3.88;0.90;;;29.70;99.90;;;;;;5033385;28;20081;-89
2022/06/18 12:55:52;;;;;;;7.35;0.98;;;29.80;99.90;;;;;;5034989;28;20485;-90
2022/06/18 12:58:23;;;;;;;6.78;0.88;;;29.90;99.90;;;;;;5025939;28;20595;-91
2022/06/18 13:00:58;;;;;;;3.83;0.93;;;30.30;99.90;;;;;;5039341;28;20504;-92
2022/06/18 13:04:01;;;;;;;6.18;1.20;;;30.30;99.90;;;;;;5037772;28;20108;-92
2022/06/18 13:06:46;;;;;;;6.70;1.00;;;30.60;99.90;;;;;;5032991;28;20033;-89
2022/06/18 13:09:33;;;;;;;6.75;1.10;;;30.40;99.90;;;;;;5032016;28;20036;-90
2022/06/18 13:12:13;;;;;;;7.75;1.48;;;30.20;99.90;;;;;;5032810;28;20115;-90
2022/06/18 13:15:01;;;;;;;5.35;1.20;;;30.20;99.90;;;;;;5024649;28;20029;-90
2022/06/18 13:17:37;;;;;;;7.28;1.40;;;30.40;99.90;;;;;;5035955;28;20041;-92
2022/06/18 13:20:26;;;;;;;4.35;1.02;;;30.20;99.90;;;;;;5033519;28;20071;-92
2022/06/18 13:22:52;;;;;;;6.00;1.40;;;30.20;99.90;;;;;;5020625;28;20062;-92
2022/06/18 13:28:26;;;;;;;5.60;0.82;;;30.40;99.90;;;;;;5031325;28;20025;-93
2022/06/18 13:31:26;;;;;;;6.82;1.33;;;30.40;99.90;;;;;;5030801;28;20060;-93
2022/06/18 13:34:18;;;;;;;3.88;0.70;;;30.40;99.90;;;;;;5042712;28;20029;-92
2022/06/18 13:37:10;;;;;;;5.13;1.45;;;30.30;99.90;;;;;;5040401;28;20100;-89
2022/06/18 13:40:06;;;;;;;8.68;1.08;;;30.20;99.90;;;;;;5036348;28;20124;-90
2022/06/18 13:43:06;;;;;;;6.57;0.82;;;30.40;99.90;;;;;;5019496;28;20086;-91
2022/06/18 13:45:53;;;;;;;5.22;1.13;;;30.50;99.90;;;;;;5019961;28;20112;-90
2022/06/18 13:48:34;;;;;;;6.07;1.10;;;30.30;99.90;;;;;;5023872;28;21056;-91